Time;durP1;ratioP1;P1;durP2;ratioP2;P2;SDS_P1;SDS_P2;PMS_P1;PMS_P2;Temp;Humidity;BMP_temperature;BMP_pressure;BME280_temperature;BME280_humidity;BME280_pressure;Samples;Min_cycle;Max_cycle;Signal;HPM_P1;HPM_P2
2021/03/15 00:02:54;;;;;;;22.08;3.60;;;;;;;9.78;72.62;100413.69;3923680;32;20042;-76
2021/03/15 00:05:20;;;;;;;18.33;2.78;;;;;;;9.69;72.72;100407.88;4391455;32;20520;-76
2021/03/15 00:07:47;;;;;;;15.55;3.47;;;;;;;9.77;72.06;100403.69;4392917;32;20518;-76
2021/03/15 00:10:13;;;;;;;22.58;3.22;;;;;;;9.81;72.23;100405.16;4394933;32;20073;-76
2021/03/15 00:12:41;;;;;;;20.67;3.33;;;;;;;9.90;72.07;100401.72;4396346;32;20030;-77
2021/03/15 00:15:09;;;;;;;21.52;3.60;;;;;;;9.82;72.30;100414.41;4390831;32;20123;-76
2021/03/15 00:17:34;;;;;;;16.37;3.47;;;;;;;9.72;72.73;100392.97;4392732;32;20069;-76
2021/03/15 00:20:00;;;;;;;23.45;3.45;;;;;;;9.76;72.57;100413.34;4389255;32;20066;-77
2021/03/15 00:22:25;;;;;;;21.48;2.80;;;;;;;9.65;73.21;100427.66;4394476;32;20042;-76
2021/03/15 00:24:51;;;;;;;16.67;3.20;;;;;;;9.84;72.51;100412.72;4392772;32;20110;-76
2021/03/15 00:27:17;;;;;;;18.02;3.47;;;;;;;9.72;72.39;100437.91;4388613;32;20070;-76
2021/03/15 00:29:43;;;;;;;15.13;4.18;;;;;;;9.68;72.67;100426.78;4391479;32;20476;-76
2021/03/15 00:32:09;;;;;;;17.08;2.87;;;;;;;9.71;72.60;100439.97;4389685;32;20458;-76
2021/03/15 00:34:34;;;;;;;20.58;3.22;;;;;;;9.72;72.40;100449.97;4393974;32;20082;-77
2021/03/15 00:37:01;;;;;;;21.42;3.00;;;;;;;9.90;71.60;100452.31;4388555;32;21445;-77
2021/03/15 00:39:27;;;;;;;20.05;3.85;;;;;;;9.82;71.74;100453.75;4390872;32;20109;-77
2021/03/15 00:41:52;;;;;;;22.45;2.85;;;;;;;9.84;71.97;100446.44;4393456;32;20461;-77
2021/03/15 00:44:19;;;;;;;25.77;4.40;;;;;;;9.89;71.81;100448.72;4388193;32;20398;-77
2021/03/15 00:46:44;;;;;;;18.02;3.35;;;;;;;9.88;71.44;100449.94;4391639;32;20038;-77
2021/03/15 00:49:10;;;;;;;25.45;4.20;;;;;;;9.87;71.54;100459.59;4392403;32;20146;-77
2021/03/15 00:51:36;;;;;;;16.62;3.37;;;;;;;9.88;71.24;100454.78;4393445;32;20077;-78
2021/03/15 00:54:02;;;;;;;21.98;4.03;;;;;;;9.98;70.98;100459.34;4393152;32;20395;-77
2021/03/15 00:56:27;;;;;;;23.92;3.85;;;;;;;9.84;71.21;100468.13;4398353;32;20557;-77
2021/03/15 00:58:53;;;;;;;22.23;3.53;;;;;;;9.79;71.52;100475.06;4395176;32;20362;-77
2021/03/15 01:01:19;;;;;;;27.08;3.47;;;;;;;9.90;71.20;100469.16;4391190;32;20046;-77
2021/03/15 01:03:45;;;;;;;25.37;3.92;;;;;;;9.87;70.94;100468.03;4380073;32;20112;-77
2021/03/15 01:06:13;;;;;;;22.65;4.57;;;;;;;9.86;71.16;100480.53;4380853;32;20039;-77
2021/03/15 01:08:40;;;;;;;18.50;3.25;;;;;;;9.82;71.17;100476.22;4394043;32;20051;-78
2021/03/15 01:11:06;;;;;;;18.77;3.30;;;;;;;9.85;71.45;100478.16;4385167;32;20035;-77
2021/03/15 01:13:33;;;;;;;20.05;3.35;;;;;;;9.96;71.06;100479.47;4383668;32;20054;-78
2021/03/15 01:15:59;;;;;;;24.80;3.78;;;;;;;9.97;70.69;100472.59;4384440;32;20100;-77
2021/03/15 01:18:25;;;;;;;24.02;4.10;;;;;;;9.96;70.62;100473.03;4385132;32;20086;-77
2021/03/15 01:20:51;;;;;;;19.40;3.22;;;;;;;10.01;70.46;100480.94;4380305;32;20125;-77
2021/03/15 01:23:18;;;;;;;23.67;4.05;;;;;;;10.10;70.03;100479.09;4368099;32;20425;-78
2021/03/15 01:25:44;;;;;;;25.30;4.50;;;;;;;10.04;70.10;100486.47;4383778;32;20359;-77
2021/03/15 01:28:13;;;;;;;20.08;3.67;;;;;;;9.97;70.28;100486.66;4385755;32;20042;-77
2021/03/15 01:30:42;;;;;;;23.77;3.87;;;;;;;9.89;70.66;100495.72;4382421;32;20061;-77
2021/03/15 01:33:08;;;;;;;21.42;4.62;;;;;;;9.93;70.65;100502.81;4386919;32;20116;-77
2021/03/15 01:35:34;;;;;;;28.23;3.62;;;;;;;9.92;70.24;100494.84;4382070;32;20109;-77
2021/03/15 01:38:01;;;;;;;21.08;3.40;;;;;;;9.90;70.42;100497.28;4382615;32;20516;-76
2021/03/15 01:40:28;;;;;;;21.27;3.22;;;;;;;9.79;71.01;100489.13;4379285;32;20042;-77
2021/03/15 01:42:54;;;;;;;27.60;3.95;;;;;;;9.98;70.26;100496.66;4381453;32;20078;-76
2021/03/15 01:45:20;;;;;;;26.05;3.80;;;;;;;9.87;70.50;100498.97;4381968;32;20497;-77
2021/03/15 01:47:47;;;;;;;23.98;3.83;;;;;;;10.00;70.22;100507.47;4383012;32;20070;-77
2021/03/15 01:50:15;;;;;;;38.78;4.00;;;;;;;9.94;70.26;100506.41;4381604;32;20066;-77
2021/03/15 01:52:41;;;;;;;30.80;4.18;;;;;;;9.84;70.50;100497.03;4379966;32;20035;-77
2021/03/15 01:55:10;;;;;;;29.65;4.37;;;;;;;9.67;71.05;100495.44;4383049;32;20082;-77
2021/03/15 01:57:36;;;;;;;25.70;3.95;;;;;;;9.51;71.74;100498.22;4370617;32;20086;-77
2021/03/15 02:00:06;;;;;;;20.40;4.37;;;;;;;9.64;71.55;100501.94;4381922;32;20049;-77
2021/03/15 02:02:31;;;;;;;26.58;3.78;;;;;;;9.60;71.71;100511.66;4376467;32;20369;-77
2021/03/15 02:04:57;;;;;;;23.98;3.50;;;;;;;9.61;71.62;100499.22;4382208;32;20109;-77
2021/03/15 02:07:23;;;;;;;28.20;5.00;;;;;;;9.55;71.78;100498.94;4379884;32;20047;-77
2021/03/15 02:09:49;;;;;;;29.67;4.55;;;;;;;9.48;72.29;100513.16;4384685;32;20026;-77
2021/03/15 02:23:30;;;;;;;27.83;4.72;;;;;;;9.65;71.42;100516.78;3985946;32;15022722;-76
2021/03/15 02:26:26;;;;;;;17.58;3.47;;;;;;;9.47;71.88;100510.78;4440964;32;20094;-76
2021/03/15 02:32:13;;;;;;;20.73;3.72;;;;;;;9.92;70.80;100525.75;3986018;32;15023106;-76
2021/03/15 02:37:35;;;;;;;16.17;3.35;;;;;;;9.87;70.83;100518.63;3991987;32;15021886;-76
2021/03/15 02:40:07;;;;;;;24.85;4.10;;;;;;;9.87;70.83;100518.63;4440588;32;20088;-76
2021/03/15 02:42:35;;;;;;;19.50;3.83;;;;;;;9.46;71.38;100514.81;4436642;32;20092;-76
2021/03/15 02:45:01;;;;;;;21.12;3.85;;;;;;;9.32;71.37;100515.94;4435845;32;20045;-76
2021/03/15 02:47:28;;;;;;;20.73;3.62;;;;;;;9.34;71.31;100516.28;4436006;32;20026;-76
2021/03/15 02:49:59;;;;;;;29.77;3.45;;;;;;;9.23;71.65;100521.34;4439224;32;20033;-76
2021/03/15 02:52:27;;;;;;;20.37;3.60;;;;;;;9.33;71.32;100519.53;4440678;32;20021;-76
2021/03/15 02:54:56;;;;;;;20.33;4.18;;;;;;;9.34;71.39;100521.13;4434918;32;20091;-75
2021/03/15 02:57:22;;;;;;;24.00;4.10;;;;;;;9.23;71.68;100515.72;4437834;32;20079;-76
2021/03/15 02:59:51;;;;;;;22.40;3.92;;;;;;;9.24;71.51;100522.16;4442386;32;20037;-76
2021/03/15 03:02:17;;;;;;;17.75;3.95;;;;;;;9.35;71.33;100517.06;4432081;32;20400;-76
2021/03/15 03:04:45;;;;;;;22.45;4.05;;;;;;;9.43;70.98;100519.31;4433637;32;20417;-77
2021/03/15 03:07:12;;;;;;;27.37;4.12;;;;;;;9.34;71.52;100516.28;4434130;32;20034;-77
2021/03/15 03:09:39;;;;;;;35.95;4.70;;;;;;;9.30;72.05;100523.22;4431774;32;20106;-76
2021/03/15 03:12:06;;;;;;;18.25;3.45;;;;;;;9.20;72.56;100536.25;4431536;32;20091;-77
2021/03/15 03:14:33;;;;;;;21.42;3.83;;;;;;;9.18;72.97;100533.06;4432087;32;20044;-76
2021/03/15 03:17:02;;;;;;;22.65;4.10;;;;;;;9.09;73.26;100543.31;4431833;32;20505;-77
2021/03/15 03:19:30;;;;;;;24.85;4.03;;;;;;;9.15;73.21;100536.78;4430592;32;20034;-77
2021/03/15 03:21:58;;;;;;;24.40;3.97;;;;;;;9.28;72.76;100543.31;4433833;32;20018;-76
2021/03/15 03:24:28;;;;;;;21.35;3.62;;;;;;;9.35;72.60;100536.72;4432255;32;20091;-77
2021/03/15 03:26:54;;;;;;;24.73;3.83;;;;;;;9.25;72.86;100546.97;4430660;32;20471;-77
2021/03/15 03:29:21;;;;;;;32.70;3.80;;;;;;;9.28;72.85;100551.72;4436127;32;20156;-77
2021/03/15 03:31:49;;;;;;;20.52;4.28;;;;;;;9.31;72.88;100547.25;4433835;32;20099;-78
2021/03/15 03:34:15;;;;;;;27.75;4.30;;;;;;;9.46;72.29;100552.13;4432199;32;20068;-78
2021/03/15 03:36:42;;;;;;;22.95;4.10;;;;;;;9.38;72.04;100549.91;4428368;32;20108;-77
2021/03/15 03:39:10;;;;;;;23.20;4.62;;;;;;;9.44;71.97;100548.16;4431137;32;20086;-76
2021/03/15 03:41:37;;;;;;;24.83;4.25;;;;;;;9.54;71.54;100547.12;4431432;32;20569;-76
2021/03/15 03:44:03;;;;;;;30.60;4.35;;;;;;;9.57;71.47;100551.88;4432647;32;20049;-77
2021/03/15 03:46:29;;;;;;;23.45;4.60;;;;;;;9.53;71.65;100566.00;4429811;32;20037;-78
2021/03/15 03:48:55;;;;;;;31.33;5.10;;;;;;;9.54;71.54;100563.97;4423721;32;20095;-78
2021/03/15 03:51:24;;;;;;;23.95;3.95;;;;;;;9.48;71.54;100566.50;4422556;32;20022;-77
2021/03/15 03:53:53;;;;;;;21.73;4.12;;;;;;;9.46;71.67;100574.59;4425704;32;20104;-77
2021/03/15 03:56:29;;;;;;;26.25;5.12;;;;;;;9.53;71.07;100557.59;4422272;32;20389;-78
2021/03/15 03:58:57;;;;;;;23.77;4.12;;;;;;;9.46;71.13;100556.94;4416008;32;20100;-78
2021/03/15 04:01:31;;;;;;;24.17;3.83;;;;;;;9.52;70.75;100558.81;4423042;32;20458;-78
2021/03/15 04:03:58;;;;;;;17.10;3.12;;;;;;;9.52;70.73;100570.06;4415597;32;20422;-78
2021/03/15 04:06:26;;;;;;;20.95;4.22;;;;;;;9.62;70.36;100566.22;4421704;32;20075;-77
2021/03/15 04:11:31;;;;;;;26.67;3.85;;;;;;;9.87;69.60;100588.91;3959630;32;15723599;-79
2021/03/15 04:13:58;;;;;;;29.73;4.47;;;;;;;9.87;69.60;100588.91;4438215;32;20041;-79
2021/03/15 04:16:29;;;;;;;20.90;3.65;;;;;;;9.37;70.66;100573.59;4434944;32;20433;-79
2021/03/15 04:18:58;;;;;;;27.00;3.95;;;;;;;9.42;70.49;100576.69;4434659;32;20018;-79
2021/03/15 04:21:27;;;;;;;24.30;4.35;;;;;;;9.43;70.15;100580.28;4436320;32;20045;-79
2021/03/15 04:23:56;;;;;;;23.65;3.65;;;;;;;9.44;70.22;100579.06;4436247;32;20021;-78
2021/03/15 04:26:24;;;;;;;29.50;4.40;;;;;;;9.34;70.64;100583.69;4435803;32;20461;-79
2021/03/15 04:28:51;;;;;;;24.30;3.70;;;;;;;9.32;70.65;100591.75;4437845;32;20094;-78
2021/03/15 04:31:18;;;;;;;19.58;3.20;;;;;;;9.39;70.56;100597.22;4438760;32;20066;-78
2021/03/15 04:33:45;;;;;;;21.58;3.65;;;;;;;9.28;70.73;100599.47;4437563;32;20422;-78
2021/03/15 04:36:13;;;;;;;24.65;4.65;;;;;;;9.39;70.34;100602.06;4441104;32;20082;-78
2021/03/15 04:38:41;;;;;;;24.50;3.53;;;;;;;9.44;70.75;100609.94;4437494;32;20097;-78
2021/03/15 04:41:07;;;;;;;17.75;3.50;;;;;;;9.43;71.00;100600.75;4436449;32;20085;-78
2021/03/15 04:43:34;;;;;;;29.33;4.40;;;;;;;9.45;70.79;100617.16;4438371;32;20531;-78
2021/03/15 04:46:00;;;;;;;26.15;4.80;;;;;;;9.46;70.83;100613.94;4438589;32;20041;-79
2021/03/15 04:48:27;;;;;;;20.85;4.60;;;;;;;9.48;70.97;100621.94;4436182;32;20063;-78
2021/03/15 04:50:58;;;;;;;21.67;4.50;;;;;;;9.58;70.71;100632.91;4437824;32;20098;-79
2021/03/15 04:53:25;;;;;;;17.40;4.00;;;;;;;9.63;70.64;100620.34;4436695;32;20070;-78
2021/03/15 04:55:53;;;;;;;25.40;4.45;;;;;;;9.59;70.74;100622.47;4439511;32;20056;-78
2021/03/15 04:58:20;;;;;;;31.67;4.28;;;;;;;9.51;71.03;100637.91;4439896;32;20018;-78
2021/03/15 05:00:49;;;;;;;22.50;4.47;;;;;;;9.66;70.46;100641.97;4434194;32;20095;-77
2021/03/15 05:03:18;;;;;;;26.77;3.67;;;;;;;9.70;70.03;100643.47;4425434;32;20069;-79
2021/03/15 05:05:46;;;;;;;21.23;3.97;;;;;;;9.72;70.13;100641.03;4426484;32;20369;-79
2021/03/15 05:08:16;;;;;;;25.05;4.28;;;;;;;9.62;69.95;100644.88;4414812;32;20053;-79
2021/03/15 05:10:43;;;;;;;21.62;3.92;;;;;;;9.76;69.40;100652.97;4411039;32;20093;-79
2021/03/15 05:13:10;;;;;;;27.77;4.37;;;;;;;9.76;69.70;100660.63;4414220;32;20520;-79
2021/03/15 05:15:37;;;;;;;18.87;3.97;;;;;;;9.72;69.54;100662.72;4425992;32;20030;-79
2021/03/15 05:18:07;;;;;;;20.33;3.87;;;;;;;9.75;69.67;100664.66;4425716;32;20169;-79
2021/03/15 05:20:35;;;;;;;19.10;4.00;;;;;;;9.69;69.74;100667.19;4425732;32;20435;-79
2021/03/15 05:23:06;;;;;;;21.73;3.60;;;;;;;9.85;69.50;100672.09;4416685;32;20073;-79
2021/03/15 05:25:33;;;;;;;22.25;4.22;;;;;;;9.91;69.45;100673.12;4419254;32;20136;-79
2021/03/15 05:28:00;;;;;;;24.08;3.70;;;;;;;9.96;69.42;100681.06;4415412;32;20014;-79
2021/03/15 05:30:27;;;;;;;21.10;3.45;;;;;;;9.91;69.50;100679.53;4415832;32;20076;-79
2021/03/15 05:32:55;;;;;;;19.42;3.87;;;;;;;9.89;69.76;100675.59;4416690;32;20136;-79
2021/03/15 05:35:21;;;;;;;26.37;3.90;;;;;;;10.04;69.60;100683.25;4415592;32;20246;-79
2021/03/15 05:37:48;;;;;;;17.75;3.47;;;;;;;10.12;69.33;100691.59;4417072;32;20054;-79
2021/03/15 05:40:18;;;;;;;18.25;4.00;;;;;;;9.96;69.66;100681.84;4415579;32;20378;-79
